Time;durP1;ratioP1;P1;durP2;ratioP2;P2;SDS_P1;SDS_P2;PMS_P1;PMS_P2;Temp;Humidity;BMP_temperature;BMP_pressure;BME280_temperature;BME280_humidity;BME280_pressure;Samples;Min_cycle;Max_cycle;Signal;HPM_P1;HPM_P2
2023/07/12 00:02:23;;;;;;;;;;;19.00;99.90;;;;;;5057566;27;19931;-73
2023/07/12 00:04:49;;;;;;;;;;;19.00;99.90;;;;;;5058569;28;20775;-73
2023/07/12 00:07:15;;;;;;;;;;;19.00;99.90;;;;;;5060856;28;19936;-73
2023/07/12 00:09:40;;;;;;;;;;;19.00;99.90;;;;;;5071304;28;19939;-73
2023/07/12 00:12:06;;;;;;;;;;;19.00;99.90;;;;;;5059728;28;19938;-75
2023/07/12 00:14:32;;;;;;;;;;;19.00;99.90;;;;;;5058091;28;19932;-75
2023/07/12 00:16:58;;;;;;;;;;;18.90;99.90;;;;;;5059708;28;19927;-75
2023/07/12 00:19:23;;;;;;;;;;;18.90;99.90;;;;;;5046103;28;19967;-76
2023/07/12 00:21:49;;;;;;;;;;;18.90;99.90;;;;;;5076128;27;19932;-75
2023/07/12 00:24:16;;;;;;;;;;;18.90;99.90;;;;;;5061357;28;19963;-75
2023/07/12 00:26:41;;;;;;;;;;;18.90;99.90;;;;;;5064967;28;19924;-75
2023/07/12 00:29:08;;;;;;;;;;;18.90;99.90;;;;;;5079175;28;20386;-75
2023/07/12 00:31:34;;;;;;;;;;;18.90;99.90;;;;;;5078039;27;20329;-75
2023/07/12 00:34:00;;;;;;;;;;;18.90;99.90;;;;;;5077846;28;19932;-74
2023/07/12 00:36:29;;;;;;;;;;;18.90;99.90;;;;;;5060480;28;19981;-75
2023/07/12 00:38:56;;;;;;;;;;;18.90;99.90;;;;;;5070456;28;19972;-72
2023/07/12 00:41:40;;;;;;;;;;;18.90;99.90;;;;;;5044117;28;20298;-73
2023/07/12 00:44:08;;;;;;;;;;;18.90;99.90;;;;;;5061473;28;21574;-73
2023/07/12 00:46:35;;;;;;;;;;;18.90;99.90;;;;;;5076441;28;19938;-72
2023/07/12 00:49:01;;;;;;;;;;;18.80;99.90;;;;;;5059356;28;20535;-72
2023/07/12 00:51:27;;;;;;;;;;;18.80;99.90;;;;;;5058436;28;19924;-73
2023/07/12 00:53:56;;;;;;;;;;;18.80;99.90;;;;;;5078002;27;19949;-74
2023/07/12 00:56:22;;;;;;;;;;;18.80;99.90;;;;;;5058209;28;20458;-75
2023/07/12 00:58:53;;;;;;;;;;;18.80;99.90;;;;;;5059869;28;19928;-76
2023/07/12 01:01:20;;;;;;;;;;;18.80;99.90;;;;;;5047735;28;20510;-76
2023/07/12 01:03:46;;;;;;;;;;;18.80;99.90;;;;;;5059837;28;19924;-74
2023/07/12 01:06:12;;;;;;;;;;;18.80;99.90;;;;;;5078182;27;19928;-73
2023/07/12 01:08:42;;;;;;;;;;;18.80;99.90;;;;;;5060019;28;20010;-79
2023/07/12 01:11:13;;;;;;;;;;;18.80;99.90;;;;;;5059460;28;20005;-74
2023/07/12 01:13:42;;;;;;;;;;;18.80;99.90;;;;;;5058337;28;20047;-75
2023/07/12 01:16:09;;;;;;;;;;;18.80;99.90;;;;;;5042154;28;20023;-75
2023/07/12 01:18:34;;;;;;;;;;;18.80;99.90;;;;;;5059325;28;19928;-74
2023/07/12 01:21:05;;;;;;;;;;;18.80;99.90;;;;;;5060772;28;19920;-75
2023/07/12 01:23:31;;;;;;;;;;;18.80;99.90;;;;;;5056969;28;19938;-73
2023/07/12 01:26:15;;;;;;;;;;;18.80;99.90;;;;;;5078741;28;19924;-74
2023/07/12 01:28:41;;;;;;;;;;;18.80;99.90;;;;;;5059048;28;19928;-75
2023/07/12 01:31:06;;;;;;;;;;;18.80;99.90;;;;;;5059876;28;19928;-74
2023/07/12 01:33:32;;;;;;;;;;;18.80;99.90;;;;;;5076234;27;19972;-74
2023/07/12 01:35:58;;;;;;;;;;;18.80;99.90;;;;;;5078077;28;19932;-74
2023/07/12 01:38:23;;;;;;;;;;;18.80;99.90;;;;;;5038420;28;19932;-75
2023/07/12 01:40:49;;;;;;;;;;;18.80;99.90;;;;;;5062500;28;19927;-75
2023/07/12 01:43:15;;;;;;;;;;;18.80;99.90;;;;;;5074020;27;19928;-75
2023/07/12 01:45:40;;;;;;;;;;;18.80;99.90;;;;;;5079465;28;19932;-75
2023/07/12 01:48:06;;;;;;;;;;;18.80;99.90;;;;;;5059725;28;19928;-75
2023/07/12 01:50:32;;;;;;;;;;;18.80;99.90;;;;;;5060863;28;19975;-75
2023/07/12 01:52:57;;;;;;;;;;;18.80;99.90;;;;;;5074444;28;20231;-75
2023/07/12 01:55:23;;;;;;;;;;;18.80;99.90;;;;;;5073730;27;19928;-74
2023/07/12 01:57:48;;;;;;;;;;;18.80;99.90;;;;;;5045310;28;20338;-75
2023/07/12 02:00:14;;;;;;;;;;;18.80;99.90;;;;;;5057709;28;19928;-74
2023/07/12 02:02:40;;;;;;;;;;;18.80;99.90;;;;;;5076870;28;20507;-73
2023/07/12 02:05:06;;;;;;;;;;;18.80;99.90;;;;;;5073689;28;19928;-73
2023/07/12 02:07:32;;;;;;;;;;;19.10;99.90;;;;;;5055532;27;19959;-73
2023/07/12 02:10:08;;;;;;;;;;;18.70;99.90;;;;;;5058508;28;20350;-77
2023/07/12 02:12:34;;;;;;;;;;;18.70;99.90;;;;;;5077154;28;19936;-76
2023/07/12 02:15:00;;;;;;;;;;;18.70;99.90;;;;;;5059763;28;19930;-74
2023/07/12 02:17:25;;;;;;;;;;;18.80;99.90;;;;;;5057224;28;20007;-74
2023/07/12 02:19:51;;;;;;;;;;;18.80;99.90;;;;;;5066540;28;21461;-74
2023/07/12 02:22:16;;;;;;;;;;;18.70;99.90;;;;;;5065514;28;19959;-75
2023/07/12 02:24:42;;;;;;;;;;;18.70;99.90;;;;;;5057309;28;19932;-74
2023/07/12 02:27:08;;;;;;;;;;;18.70;99.90;;;;;;5072247;27;20019;-75
2023/07/12 02:29:33;;;;;;;;;;;18.70;99.90;;;;;;5073001;28;19924;-75
2023/07/12 02:32:02;;;;;;;;;;;18.70;99.90;;;;;;5079154;28;19943;-73
2023/07/12 02:34:27;;;;;;;;;;;18.70;99.90;;;;;;5056558;28;19928;-73
2023/07/12 02:36:53;;;;;;;;;;;18.60;99.90;;;;;;5076542;27;19932;-74
2023/07/12 02:39:19;;;;;;;;;;;18.60;99.90;;;;;;5073594;27;19932;-74
2023/07/12 02:41:44;;;;;;;;;;;18.60;99.90;;;;;;5070258;28;19928;-75
2023/07/12 02:44:11;;;;;;;;;;;18.60;99.90;;;;;;5057417;28;19928;-76
2023/07/12 02:46:37;;;;;;;;;;;18.60;99.90;;;;;;5077520;28;19935;-74
2023/07/12 02:49:03;;;;;;;;;;;18.60;99.90;;;;;;5056282;28;21772;-73
2023/07/12 02:51:29;;;;;;;;;;;18.60;99.90;;;;;;5058412;28;20014;-74
2023/07/12 02:53:54;;;;;;;;;;;18.50;99.90;;;;;;5055946;28;19979;-74
2023/07/12 02:56:22;;;;;;;;;;;18.60;99.90;;;;;;5058485;28;20207;-76
2023/07/12 02:58:47;;;;;;;;;;;18.50;99.90;;;;;;5077560;28;19924;-76
2023/07/12 03:01:13;;;;;;;;;;;18.60;99.90;;;;;;5075891;28;19928;-75
2023/07/12 03:03:38;;;;;;;;;;;18.60;99.90;;;;;;5072495;27;19943;-74
2023/07/12 03:06:05;;;;;;;;;;;18.50;99.90;;;;;;5044145;28;19984;-75
2023/07/12 03:08:30;;;;;;;;;;;18.50;99.90;;;;;;5067406;28;19928;-75
2023/07/12 03:10:57;;;;;;;;;;;18.50;99.90;;;;;;5079905;28;19928;-75
2023/07/12 03:13:23;;;;;;;;;;;18.50;99.90;;;;;;5058491;28;20400;-73
2023/07/12 03:15:48;;;;;;;;;;;18.50;99.90;;;;;;5058926;28;20012;-72
2023/07/12 03:18:14;;;;;;;;;;;18.50;99.90;;;;;;5051226;28;19951;-72
2023/07/12 03:20:40;;;;;;;;;;;18.50;99.90;;;;;;5059541;28;19947;-73
2023/07/12 03:23:05;;;;;;;;;;;18.50;99.90;;;;;;5058264;28;19927;-72
2023/07/12 03:25:31;;;;;;;;;;;18.50;99.90;;;;;;5075152;28;19991;-76
2023/07/12 03:27:56;;;;;;;;;;;18.50;99.90;;;;;;5056081;28;19936;-73
2023/07/12 03:30:22;;;;;;;;;;;18.50;99.90;;;;;;5076010;28;20128;-72
2023/07/12 03:32:47;;;;;;;;;;;18.50;99.90;;;;;;5058570;28;20371;-73
2023/07/12 03:35:13;;;;;;;;;;;18.50;99.90;;;;;;5056545;28;19928;-72
2023/07/12 03:37:39;;;;;;;;;;;18.50;99.90;;;;;;5055026;28;19932;-72
2023/07/12 03:40:05;;;;;;;;;;;18.60;99.90;;;;;;5080141;27;19924;-72
2023/07/12 03:42:30;;;;;;;;;;;18.60;99.90;;;;;;5079393;28;19928;-72
2023/07/12 03:44:56;;;;;;;;;;;18.60;99.90;;;;;;5059202;28;19934;-72
2023/07/12 03:47:22;;;;;;;;;;;18.60;99.90;;;;;;5062319;28;20240;-72
2023/07/12 03:49:47;;;;;;;;;;;18.60;99.90;;;;;;5059748;28;19928;-71
2023/07/12 03:52:13;;;;;;;;;;;18.60;99.90;;;;;;5081990;28;19927;-72
2023/07/12 03:54:38;;;;;;;;;;;18.60;99.90;;;;;;5060097;28;19940;-72
2023/07/12 03:57:04;;;;;;;;;;;18.70;99.90;;;;;;5060914;28;20232;-72
2023/07/12 03:59:30;;;;;;;;;;;18.60;99.90;;;;;;5077698;27;19935;-71
2023/07/12 04:01:55;;;;;;;;;;;18.60;99.90;;;;;;5062569;28;20013;-72
2023/07/12 04:04:22;;;;;;;;;;;18.60;99.90;;;;;;5079407;28;19932;-73
2023/07/12 04:06:47;;;;;;;;;;;18.60;99.90;;;;;;5065123;28;19924;-71
2023/07/12 04:09:13;;;;;;;;;;;18.60;99.90;;;;;;5060704;28;20413;-76
2023/07/12 04:11:41;;;;;;;;;;;18.60;99.90;;;;;;5082097;27;20083;-75
2023/07/12 04:14:07;;;;;;;;;;;18.60;99.90;;;;;;5055630;28;19927;-77
2023/07/12 04:16:33;;;;;;;;;;;18.60;99.90;;;;;;5064370;28;19931;-76
2023/07/12 04:18:59;;;;;;;;;;;18.60;99.90;;;;;;5080968;27;19932;-76
2023/07/12 04:21:25;;;;;;;;;;;18.60;99.90;;;;;;5060033;28;19966;-76
2023/07/12 04:23:50;;;;;;;;;;;18.60;99.90;;;;;;5060790;28;19932;-78
2023/07/12 04:26:20;;;;;;;;;;;19.20;99.90;;;;;;5065798;28;20397;-76
2023/07/12 04:28:49;;;;;;;;;;;18.60;99.90;;;;;;5062787;28;20289;-75
2023/07/12 04:31:15;;;;;;;;;;;18.60;99.90;;;;;;5064187;28;19955;-78
2023/07/12 04:33:41;;;;;;;;;;;18.60;99.90;;;;;;5055892;28;21050;-78
2023/07/12 04:36:08;;;;;;;;;;;18.60;99.90;;;;;;5061653;28;20026;-74
2023/07/12 04:38:34;;;;;;;;;;;18.60;99.90;;;;;;5065616;28;20011;-74
2023/07/12 04:40:59;;;;;;;;;;;18.60;99.90;;;;;;5077733;27;19924;-75
2023/07/12 04:43:25;;;;;;;;;;;18.50;99.90;;;;;;5083155;28;19924;-74
2023/07/12 04:45:52;;;;;;;;;;;18.50;99.90;;;;;;5084648;27;19928;-76
2023/07/12 04:48:18;;;;;;;;;;;18.50;99.90;;;;;;5062574;28;19928;-78
2023/07/12 04:50:44;;;;;;;;;;;18.40;99.90;;;;;;5062056;28;20893;-77
2023/07/12 04:53:10;;;;;;;;;;;18.40;99.90;;;;;;5062588;28;20345;-73
2023/07/12 04:55:35;;;;;;;;;;;18.30;99.90;;;;;;5081123;28;19928;-78
2023/07/12 04:58:01;;;;;;;;;;;18.20;99.90;;;;;;5048854;28;20309;-78
2023/07/12 05:00:26;;;;;;;;;;;18.20;99.90;;;;;;5054676;28;19928;-76
2023/07/12 05:02:53;;;;;;;;;;;18.20;99.90;;;;;;5064259;28;19928;-75
2023/07/12 05:05:20;;;;;;;;;;;18.10;99.90;;;;;;5061466;28;19924;-75
2023/07/12 05:07:53;;;;;;;;;;;18.10;99.90;;;;;;5062319;28;19973;-77
2023/07/12 05:10:18;;;;;;;;;;;18.10;99.90;;;;;;5064671;27;19924;-76
2023/07/12 05:12:44;;;;;;;;;;;18.10;99.90;;;;;;5061248;28;19955;-75
2023/07/12 05:15:16;;;;;;;;;;;18.00;99.90;;;;;;5062026;28;20030;-77
2023/07/12 05:17:42;;;;;;;;;;;18.00;99.90;;;;;;5067171;28;19928;-78
2023/07/12 05:20:10;;;;;;;;;;;18.00;99.90;;;;;;5080053;28;20589;-75
2023/07/12 05:22:36;;;;;;;;;;;18.00;99.90;;;;;;5059853;28;19928;-76
2023/07/12 05:25:02;;;;;;;;;;;18.00;99.90;;;;;;5079731;27;19928;-72
2023/07/12 05:27:27;;;;;;;;;;;18.00;99.90;;;;;;5082656;28;20000;-76
2023/07/12 05:29:53;;;;;;;;;;;18.00;99.90;;;;;;5083997;27;20533;-74
2023/07/12 05:32:19;;;;;;;;;;;18.00;99.90;;;;;;5091472;27;19924;-75
2023/07/12 05:34:45;;;;;;;;;;;18.00;99.90;;;;;;5065325;28;19932;-77
2023/07/12 05:37:11;;;;;;;;;;;18.10;99.90;;;;;;5066556;28;19932;-76
2023/07/12 05:39:36;;;;;;;;;;;18.10;99.90;;;;;;5065910;27;19931;-74
2023/07/12 05:42:02;;;;;;;;;;;18.10;99.90;;;;;;5041762;28;19927;-74
2023/07/12 05:44:29;;;;;;;;;;;18.10;99.90;;;;;;5072731;28;19928;-75
2023/07/12 05:46:55;;;;;;;;;;;18.10;99.90;;;;;;5064653;27;20054;-75
2023/07/12 05:49:20;;;;;;;;;;;18.10;99.90;;;;;;5085803;28;20156;-73
2023/07/12 05:51:46;;;;;;;;;;;18.00;99.90;;;;;;5066945;28;20327;-74
2023/07/12 05:54:16;;;;;;;;;;;18.10;99.90;;;;;;5064346;28;20307;-75
2023/07/12 05:56:41;;;;;;;;;;;18.10;99.90;;;;;;5075769;27;20371;-72
2023/07/12 05:59:07;;;;;;;;;;;18.30;99.90;;;;;;5066747;28;19928;-74
2023/07/12 06:01:32;;;;;;;;;;;18.40;99.90;;;;;;5086045;27;19928;-77
2023/07/12 06:03:58;;;;;;;;;;;18.60;99.90;;;;;;5065704;28;19940;-75
2023/07/12 06:06:24;;;;;;;;;;;18.70;99.90;;;;;;5062608;28;20515;-75
2023/07/12 06:08:50;;;;;;;;;;;18.40;99.90;;;;;;5065754;28;20028;-75
2023/07/12 06:11:21;;;;;;;;;;;18.70;99.90;;;;;;5051088;28;19935;-73
2023/07/12 06:13:47;;;;;;;;;;;18.70;99.90;;;;;;5070294;28;20323;-72
2023/07/12 06:16:13;;;;;;;;;;;18.60;99.90;;;;;;5076229;28;19932;-73
2023/07/12 06:18:38;;;;;;;;;;;18.60;99.90;;;;;;5083591;28;19931;-74
2023/07/12 06:21:09;;;;;;;;;;;18.50;99.90;;;;;;5059068;28;20260;-75
2023/07/12 06:23:35;;;;;;;;;;;18.40;99.90;;;;;;5064638;28;20310;-74
2023/07/12 06:26:01;;;;;;;;;;;18.40;99.90;;;;;;5069451;28;19969;-74
2023/07/12 06:28:27;;;;;;;;;;;18.30;99.90;;;;;;5085023;28;20692;-74
2023/07/12 06:30:55;;;;;;;;;;;18.20;99.90;;;;;;5064335;28;20359;-74
2023/07/12 06:33:20;;;;;;;;;;;18.20;99.90;;;;;;5085494;27;19932;-74
2023/07/12 06:35:50;;;;;;;;;;;18.10;99.90;;;;;;5081772;28;20391;-75
2023/07/12 06:38:17;;;;;;;;;;;18.10;99.90;;;;;;5083675;28;20031;-74
2023/07/12 06:40:44;;;;;;;;;;;18.00;99.90;;;;;;5083202;27;20249;-74
2023/07/12 06:43:11;;;;;;;;;;;18.00;99.90;;;;;;5069219;28;19924;-74
2023/07/12 06:45:37;;;;;;;;;;;18.00;99.90;;;;;;5052428;28;19928;-74
2023/07/12 06:48:03;;;;;;;;;;;18.00;99.90;;;;;;5088154;28;20314;-74
2023/07/12 06:50:29;;;;;;;;;;;18.00;99.90;;;;;;5051774;28;19931;-74
2023/07/12 06:52:54;;;;;;;;;;;18.10;99.90;;;;;;5070620;28;19923;-74
2023/07/12 06:55:29;;;;;;;;;;;18.20;99.90;;;;;;5091322;28;19931;-73
2023/07/12 06:57:54;;;;;;;;;;;18.30;99.90;;;;;;5063351;28;19932;-75
2023/07/12 07:00:21;;;;;;;;;;;18.50;99.90;;;;;;5069153;28;20078;-74
2023/07/12 07:02:47;;;;;;;;;;;18.60;99.90;;;;;;5059955;28;19932;-74
2023/07/12 07:05:13;;;;;;;;;;;18.70;99.90;;;;;;5068402;28;19927;-74
2023/07/12 07:07:38;;;;;;;;;;;18.70;99.90;;;;;;5085006;28;19931;-74
2023/07/12 07:10:04;;;;;;;;;;;18.70;99.90;;;;;;5083934;28;19934;-74
2023/07/12 07:12:30;;;;;;;;;;;18.70;99.90;;;;;;5086401;28;19924;-75
2023/07/12 07:14:55;;;;;;;;;;;18.90;99.90;;;;;;5049314;28;19938;-73
2023/07/12 07:17:21;;;;;;;;;;;18.90;99.90;;;;;;5065738;28;19968;-75
2023/07/12 07:19:47;;;;;;;;;;;19.00;99.90;;;;;;5057242;28;19949;-72
2023/07/12 07:22:12;;;;;;;;;;;19.00;99.90;;;;;;5065488;28;19996;-75
2023/07/12 07:24:44;;;;;;;;;;;19.00;99.90;;;;;;5048285;28;20461;-75
2023/07/12 07:27:10;;;;;;;;;;;19.10;99.90;;;;;;5068328;28;19928;-75
2023/07/12 07:29:36;;;;;;;;;;;19.20;99.90;;;;;;5077837;28;19928;-75
2023/07/12 07:32:01;;;;;;;;;;;19.20;99.90;;;;;;5081239;28;19985;-74
2023/07/12 07:34:27;;;;;;;;;;;19.30;99.90;;;;;;5083147;28;20355;-74
2023/07/12 07:36:53;;;;;;;;;;;19.40;99.90;;;;;;5060948;28;20061;-75
2023/07/12 07:39:18;;;;;;;;;;;19.50;99.90;;;;;;5062710;28;19928;-73
2023/07/12 07:41:44;;;;;;;;;;;19.60;99.90;;;;;;5046580;28;20465;-75
2023/07/12 07:44:09;;;;;;;;;;;19.70;99.90;;;;;;5065149;28;19978;-74
2023/07/12 07:46:35;;;;;;;;;;;19.60;99.90;;;;;;5066378;28;19932;-75
2023/07/12 07:49:00;;;;;;;;;;;19.60;99.90;;;;;;5062671;28;19939;-75
2023/07/12 07:51:27;;;;;;;;;;;19.70;99.90;;;;;;5064062;28;19938;-75
2023/07/12 07:53:53;;;;;;;;;;;19.90;99.90;;;;;;5063928;28;19924;-75
2023/07/12 07:56:20;;;;;;;;;;;20.20;99.90;;;;;;5062975;28;20671;-75
2023/07/12 07:58:45;;;;;;;;;;;20.20;99.90;;;;;;5081127;28;20065;-76
2023/07/12 08:01:11;;;;;;;;;;;20.30;99.90;;;;;;5079954;28;19920;-74
2023/07/12 08:03:36;;;;;;;;;;;20.50;99.90;;;;;;5061285;28;19928;-75
2023/07/12 08:06:03;;;;;;;;;;;20.40;99.90;;;;;;5080142;28;19953;-75
2023/07/12 08:08:29;;;;;;;;;;;20.30;99.90;;;;;;5075024;28;20457;-74
2023/07/12 08:10:55;;;;;;;;;;;20.40;99.90;;;;;;5064067;28;19928;-75
2023/07/12 08:13:20;;;;;;;;;;;20.50;99.90;;;;;;5063307;28;19923;-75
2023/07/12 08:15:46;;;;;;;;;;;20.60;99.90;;;;;;5055003;28;22102;-75
2023/07/12 08:18:12;;;;;;;;;;;20.60;99.90;;;;;;5064122;28;19932;-75
2023/07/12 08:20:39;;;;;;;;;;;20.90;99.90;;;;;;5084257;28;19924;-75
2023/07/12 08:23:05;;;;;;;;;;;21.00;99.90;;;;;;5065134;28;19958;-76
2023/07/12 08:25:30;;;;;;;;;;;20.90;99.90;;;;;;5083796;28;20396;-76
2023/07/12 08:27:56;;;;;;;;;;;20.90;99.90;;;;;;5064243;28;19932;-76
2023/07/12 08:30:21;;;;;;;;;;;21.20;99.90;;;;;;5084648;28;19928;-75
2023/07/12 08:32:47;;;;;;;;;;;21.30;99.90;;;;;;5065339;28;20287;-76
2023/07/12 08:35:12;;;;;;;;;;;21.30;99.90;;;;;;5066205;28;19970;-75
2023/07/12 08:37:38;;;;;;;;;;;21.30;99.90;;;;;;5062800;28;19920;-75
2023/07/12 08:40:05;;;;;;;;;;;21.40;99.90;;;;;;5064318;28;20404;-76
2023/07/12 08:42:40;;;;;;;;;;;21.60;99.90;;;;;;5066848;28;19928;-75
2023/07/12 08:45:12;;;;;;;;;;;21.70;99.90;;;;;;5078767;28;19931;-76
2023/07/12 08:47:39;;;;;;;;;;;21.90;99.90;;;;;;5082494;28;19932;-76
2023/07/12 08:50:14;;;;;;;;;;;21.80;99.90;;;;;;5062684;28;20480;-76
2023/07/12 08:52:41;;;;;;;;;;;21.80;99.90;;;;;;5063193;28;20011;-76
2023/07/12 08:55:18;;;;;;;;;;;21.90;99.90;;;;;;5053975;28;20400;-76
2023/07/12 08:57:45;;;;;;;;;;;22.00;99.90;;;;;;5053199;28;20212;-76
2023/07/12 09:00:15;;;;;;;;;;;21.90;99.90;;;;;;5052289;27;20543;-76
2023/07/12 09:02:41;;;;;;;;;;;22.00;99.90;;;;;;5057506;28;20034;-76
2023/07/12 09:05:14;;;;;;;;;;;21.90;99.90;;;;;;5041209;27;20301;-76
2023/07/12 09:07:44;;;;;;;;;;;21.90;99.90;;;;;;5053968;28;20453;-76
2023/07/12 09:10:09;;;;;;;;;;;22.10;99.90;;;;;;5068418;27;19923;-76
2023/07/12 09:12:35;;;;;;;;;;;22.30;99.90;;;;;;5051831;28;19975;-77
2023/07/12 09:15:03;;;;;;;;;;;22.30;99.90;;;;;;5050832;28;19928;-75
2023/07/12 09:17:31;;;;;;;;;;;22.30;99.90;;;;;;5052738;28;19928;-74
2023/07/12 09:19:57;;;;;;;;;;;22.40;99.90;;;;;;5041427;28;20015;-75
2023/07/12 09:22:23;;;;;;;;;;;22.50;99.90;;;;;;5050878;27;19928;-77
2023/07/12 09:24:53;;;;;;;;;;;22.50;99.90;;;;;;5033811;28;19928;-75
2023/07/12 09:27:21;;;;;;;;;;;22.60;99.90;;;;;;5065385;27;19939;-74
2023/07/12 09:29:48;;;;;;;;;;;22.40;99.90;;;;;;5045387;27;19977;-74
2023/07/12 09:32:15;;;;;;;;;;;22.40;99.90;;;;;;5052063;27;20892;-75
2023/07/12 09:34:41;;;;;;;;;;;22.60;99.90;;;;;;5046403;28;19927;-74
2023/07/12 09:37:14;;;;;;;;;;;22.80;99.90;;;;;;5030970;28;19973;-74
2023/07/12 09:39:40;;;;;;;;;;;23.00;99.90;;;;;;5053168;28;20435;-74
2023/07/12 09:42:10;;;;;;;;;;;23.00;99.90;;;;;;5048697;28;19932;-76
2023/07/12 09:44:36;;;;;;;;;;;22.90;99.90;;;;;;5051746;28;19928;-76
2023/07/12 09:47:01;;;;;;;;;;;22.90;99.90;;;;;;5046294;28;20059;-75
2023/07/12 09:49:47;;;;;;;;;;;22.70;99.90;;;;;;5044752;28;19939;-74
2023/07/12 09:52:16;;;;;;;;;;;22.80;99.90;;;;;;5048260;28;20462;-73
2023/07/12 09:55:00;;;;;;;;;;;23.00;99.90;;;;;;5071939;28;19932;-72
2023/07/12 09:57:37;;;;;;;;;;;23.00;99.90;;;;;;5051980;28;19928;-74
2023/07/12 10:00:14;;;;;;;;;;;23.00;99.90;;;;;;5051821;28;20366;-74
2023/07/12 10:02:44;;;;;;;;;;;23.20;99.90;;;;;;5050079;27;19981;-73
2023/07/12 10:05:17;;;;;;;;;;;23.20;99.90;;;;;;5037521;28;19989;-76
2023/07/12 10:07:45;;;;;;;;;;;23.30;99.90;;;;;;5081270;27;19920;-74
2023/07/12 10:10:25;;;;;;;;;;;23.40;99.90;;;;;;5060556;28;19971;-75
2023/07/12 10:13:05;;;;;;;;;;;23.60;99.90;;;;;;5061499;28;19931;-74
2023/07/12 10:15:33;;;;;;;;;;;23.60;99.90;;;;;;5057900;28;20006;-75
2023/07/12 10:17:58;;;;;;;;;;;23.70;99.90;;;;;;5084621;27;19924;-74
2023/07/12 10:20:24;;;;;;;;;;;23.40;99.90;;;;;;5068587;28;19934;-76
2023/07/12 10:22:51;;;;;;;;;;;23.10;99.90;;;;;;5084225;27;19924;-73
2023/07/12 10:25:31;;;;;;;;;;;23.30;99.90;;;;;;5067277;28;19930;-74
2023/07/12 10:28:03;;;;;;;;;;;23.30;99.90;;;;;;5080744;28;19963;-74
2023/07/12 10:30:30;;;;;;;;;;;23.50;99.90;;;;;;5049119;28;19928;-74
2023/07/12 10:33:15;;;;;;;;;;;23.40;99.90;;;;;;5066969;28;19950;-74
2023/07/12 10:35:49;;;;;;;;;;;23.40;99.90;;;;;;5048954;28;19932;-75
2023/07/12 10:38:20;;;;;;;;;;;23.70;99.90;;;;;;5076029;28;19932;-76
2023/07/12 10:40:49;;;;;;;;;;;23.80;99.90;;;;;;5047380;28;19959;-75
2023/07/12 10:43:18;;;;;;;;;;;23.70;99.90;;;;;;5064028;28;20343;-76
2023/07/12 10:45:45;;;;;;;;;;;23.50;99.90;;;;;;5084033;28;20187;-75
2023/07/12 10:48:13;;;;;;;;;;;23.20;99.90;;;;;;5062617;28;19980;-75
2023/07/12 10:50:47;;;;;;;;;;;23.20;99.90;;;;;;5067592;28;19928;-74
2023/07/12 10:53:13;;;;;;;;;;;23.30;99.90;;;;;;5076905;28;19930;-74
2023/07/12 10:56:08;;;;;;;;;;;23.30;99.90;;;;;;5082138;27;19928;-74
2023/07/12 10:58:57;;;;;;;;;;;23.60;99.90;;;;;;5084296;28;19992;-73
2023/07/12 11:02:01;;;;;;;;;;;23.70;99.90;;;;;;5052764;28;19928;-74
2023/07/12 11:04:36;;;;;;;;;;;23.70;99.90;;;;;;4972086;28;19992;-74
2023/07/12 11:07:28;;;;;;;;;;;23.70;99.90;;;;;;5038612;28;20417;-74
2023/07/12 11:10:04;;;;;;;;;;;23.70;99.90;;;;;;5057880;28;19951;-73
2023/07/12 11:15:30;;;;;;;;;;;23.80;99.90;;;;;;5085021;28;19924;-73
2023/07/12 11:18:27;;;;;;;;;;;23.80;99.90;;;;;;5067513;28;19924;-75
2023/07/12 11:21:11;;;;;;;;;;;24.00;99.90;;;;;;5057493;28;19991;-77
2023/07/12 11:23:57;;;;;;;;;;;24.20;99.90;;;;;;5042988;28;19924;-75
2023/07/12 11:26:50;;;;;;;;;;;24.20;99.90;;;;;;5081616;28;19928;-74
2023/07/12 11:29:35;;;;;;;;;;;24.10;99.90;;;;;;5031405;28;19955;-76
2023/07/12 11:32:33;;;;;;;;;;;24.00;99.90;;;;;;5032025;28;20000;-74
2023/07/12 11:35:26;;;;;;;;;;;24.00;99.90;;;;;;5084690;28;20306;-74
2023/07/12 11:38:23;;;;;;;;;;;24.10;99.90;;;;;;5080938;28;20655;-72
2023/07/12 11:40:57;;;;;;;;;;;24.20;99.90;;;;;;5084183;28;20059;-72
2023/07/12 11:43:41;;;;;;;;;;;24.00;99.90;;;;;;5030481;28;20401;-72
2023/07/12 11:46:16;;;;;;;;;;;23.80;99.90;;;;;;5070460;28;19928;-73
2023/07/12 11:48:50;;;;;;;;;;;23.80;99.90;;;;;;5068363;28;19973;-73
2023/07/12 11:51:20;;;;;;;;;;;23.90;99.90;;;;;;5066169;28;20430;-72
2023/07/12 11:53:54;;;;;;;;;;;23.90;99.90;;;;;;5086562;28;19928;-76
2023/07/12 11:56:27;;;;;;;;;;;24.10;99.90;;;;;;5060145;28;19947;-74
2023/07/12 11:59:02;;;;;;;;;;;24.30;99.90;;;;;;5068058;28;20213;-76
2023/07/12 12:01:47;;;;;;;;;;;24.50;99.90;;;;;;5070988;28;19924;-73
2023/07/12 12:04:23;;;;;;;;;;;24.80;99.90;;;;;;5071722;28;19970;-73
2023/07/12 12:07:13;;;;;;;;;;;24.80;99.90;;;;;;5087135;28;20405;-77
2023/07/12 12:09:40;;;;;;;;;;;24.80;99.90;;;;;;5089557;28;20362;-73
2023/07/12 12:12:22;;;;;;;;;;;24.80;99.90;;;;;;5069046;28;20298;-73
2023/07/12 12:15:12;;;;;;;;;;;24.80;99.90;;;;;;5089273;28;20325;-74
2023/07/12 12:17:59;;;;;;;;;;;24.80;99.90;;;;;;5087738;28;19928;-76
2023/07/12 12:20:33;;;;;;;;;;;24.80;99.90;;;;;;5091405;28;19935;-73
2023/07/12 12:23:12;;;;;;;;;;;24.50;99.90;;;;;;5065330;28;19943;-73
2023/07/12 12:25:48;;;;;;;;;;;24.70;99.80;;;;;;5067091;28;20026;-77
2023/07/12 12:28:42;;;;;;;;;;;24.50;99.70;;;;;;5068822;28;19943;-75
2023/07/12 12:31:27;;;;;;;;;;;24.60;99.60;;;;;;5053500;28;20884;-73
2023/07/12 12:34:11;;;;;;;;;;;24.60;99.50;;;;;;5064106;28;19928;-76
2023/07/12 12:36:58;;;;;;;;;;;24.60;99.10;;;;;;5062789;28;20404;-74
2023/07/12 12:39:33;;;;;;;;;;;24.40;99.20;;;;;;5036139;28;20007;-75
2023/07/12 12:42:02;;;;;;;;;;;24.30;99.10;;;;;;5071506;28;20292;-73
2023/07/12 12:44:36;;;;;;;;;;;24.30;99.40;;;;;;5064886;28;19932;-74
2023/07/12 12:47:13;;;;;;;;;;;24.30;99.50;;;;;;5034495;28;21930;-75
2023/07/12 12:49:57;;;;;;;;;;;24.50;99.10;;;;;;5051344;28;19935;-74
2023/07/12 12:52:26;;;;;;;;;;;24.70;99.10;;;;;;5075221;28;20264;-74
2023/07/12 12:54:57;;;;;;;;;;;24.70;99.00;;;;;;5090827;28;19931;-74
2023/07/12 12:57:34;;;;;;;;;;;24.50;98.50;;;;;;5080584;28;19928;-74
2023/07/12 13:00:26;;;;;;;;;;;24.50;98.00;;;;;;5093943;28;19927;-73
2023/07/12 13:02:55;;;;;;;;;;;24.70;98.70;;;;;;5072170;28;20286;-73
2023/07/12 13:05:27;;;;;;;;;;;24.70;98.10;;;;;;5091409;28;20390;-73
2023/07/12 13:07:57;;;;;;;;;;;24.30;98.10;;;;;;5056074;28;19935;-74
2023/07/12 13:10:24;;;;;;;;;;;24.10;97.60;;;;;;5080409;28;19931;-73
2023/07/12 13:12:50;;;;;;;;;;;24.10;98.10;;;;;;5074414;28;19924;-72
2023/07/12 13:15:24;;;;;;;;;;;24.00;97.80;;;;;;5076133;28;20351;-74
2023/07/12 13:17:52;;;;;;;;;;;24.00;97.80;;;;;;5054343;28;19939;-73
2023/07/12 13:20:33;;;;;;;;;;;23.90;97.40;;;;;;5055244;27;19939;-73
2023/07/12 13:22:58;;;;;;;;;;;23.90;97.90;;;;;;5044557;28;19971;-74
2023/07/12 13:25:27;;;;;;;;;;;23.90;97.90;;;;;;5046142;28;19929;-74
2023/07/12 13:27:54;;;;;;;;;;;24.10;97.40;;;;;;5043721;28;20157;-73
2023/07/12 13:30:23;;;;;;;;;;;24.30;97.80;;;;;;5044255;28;19933;-77
2023/07/12 13:32:49;;;;;;;;;;;24.00;97.10;;;;;;5041299;28;19929;-77
2023/07/12 13:35:18;;;;;;;;;;;24.10;97.40;;;;;;5041616;28;20292;-76
2023/07/12 13:37:44;;;;;;;;;;;24.30;97.70;;;;;;5020626;28;19959;-75
2023/07/12 13:40:12;;;;;;;;;;;24.20;97.50;;;;;;5031151;28;20461;-74
2023/07/12 13:42:39;;;;;;;;;;;24.20;97.90;;;;;;5030250;28;19925;-75
2023/07/12 13:45:05;;;;;;;;;;;24.30;98.10;;;;;;5042862;28;19932;-74
2023/07/12 13:47:31;;;;;;;;;;;24.30;98.00;;;;;;5015930;28;20013;-75
2023/07/12 13:49:56;;;;;;;;;;;24.30;97.90;;;;;;5046517;28;19976;-75
2023/07/12 13:52:23;;;;;;;;;;;24.10;98.50;;;;;;5047408;28;20311;-76
2023/07/12 13:54:49;;;;;;;;;;;24.10;98.50;;;;;;5027597;28;19935;-76
2023/07/12 13:57:16;;;;;;;;;;;24.10;98.80;;;;;;5011928;28;19932;-78
2023/07/12 13:59:44;;;;;;;;;;;23.90;98.90;;;;;;5034595;28;19978;-78
2023/07/12 14:02:16;;;;;;;;;;;23.80;99.20;;;;;;5084362;28;19935;-76
2023/07/12 14:04:41;;;;;;;;;;;23.60;99.50;;;;;;5087900;27;19928;-76
2023/07/12 14:07:10;;;;;;;;;;;23.80;99.30;;;;;;5091221;28;19924;-76
2023/07/12 14:09:37;;;;;;;;;;;23.90;99.40;;;;;;5068590;28;19956;-76
2023/07/12 14:12:03;;;;;;;;;;;24.00;99.30;;;;;;5062649;28;19932;-75
2023/07/12 14:14:29;;;;;;;;;;;24.20;99.00;;;;;;5062296;28;19954;-77
2023/07/12 14:16:54;;;;;;;;;;;24.40;98.90;;;;;;5062937;28;20368;-76
2023/07/12 14:19:20;;;;;;;;;;;24.50;99.00;;;;;;5059465;28;19954;-73
2023/07/12 14:21:46;;;;;;;;;;;24.40;98.50;;;;;;5059744;28;19924;-76
2023/07/12 14:24:13;;;;;;;;;;;24.40;98.50;;;;;;5082784;27;19924;-73
2023/07/12 14:26:38;;;;;;;;;;;24.40;98.70;;;;;;5055497;28;19963;-75
2023/07/12 14:29:04;;;;;;;;;;;24.50;98.30;;;;;;5066203;28;20124;-78
2023/07/12 14:31:30;;;;;;;;;;;24.50;98.40;;;;;;5065720;28;19963;-74